Catalina Express — WCJ6210 — position and weather

sailwx.info

Track history (hours):
 
Tides and Currents Weather Stations Pressure Air Temp Water Temp Dewpoint Dewpoint Depression Visibility Wind Speed Wind Dir Waves Ship Positions

Catalina Express

Owner: RGWT INC, Long Beach, CA. More information available from US FCC via Universal Licensing System and Coast Guard Vessel Documentation Center.

Last reported at 2017-Dec-18 02:44 UTC. Time now 2017-Dec-18 12:42 UTC.
Position N 33°28' W 117°42'.

; draft 1.1 m.

Type: High speed craft. MMSI: 366943960.

Date/timePositionNaut miles runAvg speedWind from/ knotsBaromVisibWave heightAir tempDewpointWater temp
2017-Dec-18 02:44N 33°28' W 117°42'0 0.0
2017-Dec-18 02:30N 33°28' W 117°42'0 0.0
2017-Dec-18 02:01N 33°28' W 117°42'714.8
2017-Dec-18 01:31N 33°25' W 117°50'2 0.9
2017-Dec-17 22:59N 33°25' W 117°53'1019.8
2017-Dec-17 22:30N 33°28' W 117°42'0 0.0
2017-Dec-17 22:00N 33°28' W 117°42'0 0.0
2017-Dec-17 21:31N 33°28' W 117°42'2 4.0
2017-Dec-17 21:00N 33°27' W 117°44'5 1.9
2017-Dec-17 18:09N 33°26' W 117°50'626.9
2017-Dec-17 17:57N 33°27' W 117°43'2 0.1
2017-Dec-17 04:42N 33°28' W 117°41'0 0.0
2017-Dec-17 04:26N 33°28' W 117°41'0 0.0
2017-Dec-17 03:59N 33°28' W 117°41'0 0.0
2017-Dec-17 03:26N 33°28' W 117°41'0 0.0
2017-Dec-17 02:58N 33°28' W 117°41'0 0.1
2017-Dec-17 02:01N 33°28' W 117°42'0 0.0
2017-Dec-17 01:58N 33°28' W 117°42'0 0.0
2017-Dec-16 01:46N 33°27' W 117°42'520.4
2017-Dec-16 01:30N 33°27' W 117°48'1427.3
2017-Dec-16 01:00N 33°24' W 118°04'12 8.9
2017-Dec-15 23:42N 33°21' W 118°18'1027.8
2017-Dec-15 23:20N 33°23' W 118°06'927.8
2017-Dec-15 23:00N 33°25' W 117°55'1223.5
2017-Dec-15 22:30N 33°28' W 117°42'0 0.0
2017-Dec-15 22:00N 33°28' W 117°42'0 0.0
2017-Dec-15 21:30N 33°28' W 117°42'1 1.7
2017-Dec-15 21:00N 33°27' W 117°42'1427.7
2017-Dec-15 20:30N 33°24' W 117°59'4 2.3
2017-Dec-15 18:34N 33°23' W 118°04'226.9
2017-Dec-15 18:30N 33°23' W 118°02'1426.8
2017-Dec-15 18:00N 33°26' W 117°46'17 1.0
2017-Dec-15 00:59N 33°23' W 118°05'9 1.3
2017-Dec-14 18:18N 33°25' W 117°55'825.6
2017-Dec-14 18:01N 33°26' W 117°46'4 7.3
2017-Dec-14 17:29N 33°28' W 117°42'0 0.0
2017-Dec-14 16:56N 33°28' W 117°42'0 0.2
2017-Dec-14 16:30N 33°28' W 117°41'0 0.0
2017-Dec-14 01:53N 33°28' W 117°42'615.2
2017-Dec-14 01:30N 33°26' W 117°48'1326.9
2017-Dec-14 01:00N 33°23' W 118°04'13 2.4
2017-Dec-13 19:30N 33°21' W 118°20'2 3.6
2017-Dec-13 19:00N 33°21' W 118°18'1326.4
2017-Dec-13 18:30N 33°24' W 118°02'1326.2
2017-Dec-13 18:01N 33°26' W 117°47'4 9.0
2017-Dec-13 17:30N 33°28' W 117°42'0 0.0
2017-Dec-13 17:00N 33°28' W 117°42'0 0.0
2017-Dec-13 16:30N 33°28' W 117°42'0 0.0
2017-Dec-13 02:01N 33°28' W 117°42'0 0.0
2017-Dec-13 02:00N 33°28' W 117°42'917.7
2017-Dec-13 01:30N 33°25' W 117°51'3 0.5
2017-Dec-12 18:19N 33°25' W 117°55'825.9
2017-Dec-12 18:00N 33°26' W 117°46'4 7.8
2017-Dec-12 17:30N 33°28' W 117°42'0 0.0
2017-Dec-12 01:53N 33°28' W 117°41'920.6
2017-Dec-12 01:26N 33°25' W 117°52'11 1.7
2017-Dec-11 18:35N 33°23' W 118°05'226.0
2017-Dec-11 18:30N 33°24' W 118°03'1326.2
2017-Dec-11 18:01N 33°26' W 117°48'510.6
2017-Dec-11 17:31N 33°28' W 117°42'0 0.0
2017-Dec-11 01:49N 33°27' W 117°42'620.7
2017-Dec-11 01:31N 33°26' W 117°49'2 0.6
2017-Dec-10 22:46N 33°26' W 117°47'518.1
2017-Dec-10 22:30N 33°28' W 117°42'0 0.0
2017-Dec-10 22:00N 33°28' W 117°42'0 0.0
2017-Dec-10 21:30N 33°28' W 117°42'2 3.0
2017-Dec-10 21:00N 33°27' W 117°43'2712.5
2017-Dec-10 18:53N 33°21' W 118°14'2127.3
2017-Dec-10 18:07N 33°25' W 117°50'527.5
2017-Dec-10 17:55N 33°27' W 117°43'2 0.1
2017-Dec-10 01:55N 33°28' W 117°42'18 2.5
2017-Dec-09 18:34N 33°24' W 118°03'226.4
2017-Dec-09 18:30N 33°24' W 118°01'1326.1
2017-Dec-09 18:00N 33°26' W 117°46'4 7.5
2017-Dec-09 17:30N 33°28' W 117°42'0 0.0
2017-Dec-09 02:50N 33°28' W 117°42'0 0.0
2017-Dec-09 02:30N 33°28' W 117°42'0 0.0
2017-Dec-09 02:00N 33°28' W 117°42'613.0
2017-Dec-09 01:30N 33°25' W 117°49'1427.3
2017-Dec-09 01:00N 33°23' W 118°05'8 7.9
2017-Dec-08 23:59N 33°21' W 118°15'1527.2
2017-Dec-08 23:26N 33°25' W 117°58'4 7.7
2017-Dec-08 22:59N 33°25' W 117°54'1022.1
2017-Dec-08 22:30N 33°28' W 117°42'0 0.0
2017-Dec-08 22:00N 33°28' W 117°42'0 0.0
2017-Dec-08 21:31N 33°28' W 117°42'1 2.2
2017-Dec-08 21:00N 33°27' W 117°42'18 7.4
2017-Dec-08 18:35N 33°23' W 118°03'227.1
2017-Dec-08 18:30N 33°23' W 118°01'1326.9
2017-Dec-08 18:01N 33°26' W 117°45'3 6.5
2017-Dec-08 17:30N 33°28' W 117°42'0 0.0
2017-Dec-08 17:00N 33°28' W 117°42'0 0.1
2017-Dec-08 16:21N 33°28' W 117°41'  
Track history (hours):
 
Tides and Currents Weather Stations Pressure Air Temp Water Temp Dewpoint Dewpoint Depression Visibility Wind Speed Wind Dir Waves Ship Positions

Catalina Express

Owner: RGWT INC, Long Beach, CA. More information available from US FCC via Universal Licensing System and Coast Guard Vessel Documentation Center.

Last reported at 2017-Dec-18 02:44 UTC. Time now 2017-Dec-18 12:42 UTC.
Position N 33°28' W 117°42'.

; draft 1.1 m.

Type: High speed craft. MMSI: 366943960.

Date/timePositionNaut miles runAvg speedWind from/ knotsBaromVisibWave heightAir tempDewpointWater temp
2017-Dec-18 02:44N 33°28' W 117°42'0 0.0
2017-Dec-18 02:30N 33°28' W 117°42'0 0.0
2017-Dec-18 02:01N 33°28' W 117°42'714.8
2017-Dec-18 01:31N 33°25' W 117°50'2 0.9
2017-Dec-17 22:59N 33°25' W 117°53'1019.8
2017-Dec-17 22:30N 33°28' W 117°42'0 0.0
2017-Dec-17 22:00N 33°28' W 117°42'0 0.0
2017-Dec-17 21:31N 33°28' W 117°42'2 4.0
2017-Dec-17 21:00N 33°27' W 117°44'5 1.9
2017-Dec-17 18:09N 33°26' W 117°50'626.9
2017-Dec-17 17:57N 33°27' W 117°43'2 0.1
2017-Dec-17 04:42N 33°28' W 117°41'0 0.0
2017-Dec-17 04:26N 33°28' W 117°41'0 0.0
2017-Dec-17 03:59N 33°28' W 117°41'0 0.0
2017-Dec-17 03:26N 33°28' W 117°41'0 0.0
2017-Dec-17 02:58N 33°28' W 117°41'0 0.1
2017-Dec-17 02:01N 33°28' W 117°42'0 0.0
2017-Dec-17 01:58N 33°28' W 117°42'0 0.0
2017-Dec-16 01:46N 33°27' W 117°42'520.4
2017-Dec-16 01:30N 33°27' W 117°48'1427.3
2017-Dec-16 01:00N 33°24' W 118°04'12 8.9
2017-Dec-15 23:42N 33°21' W 118°18'1027.8
2017-Dec-15 23:20N 33°23' W 118°06'927.8
2017-Dec-15 23:00N 33°25' W 117°55'1223.5
2017-Dec-15 22:30N 33°28' W 117°42'0 0.0
2017-Dec-15 22:00N 33°28' W 117°42'0 0.0
2017-Dec-15 21:30N 33°28' W 117°42'1 1.7
2017-Dec-15 21:00N 33°27' W 117°42'1427.7
2017-Dec-15 20:30N 33°24' W 117°59'4 2.3
2017-Dec-15 18:34N 33°23' W 118°04'226.9
2017-Dec-15 18:30N 33°23' W 118°02'1426.8
2017-Dec-15 18:00N 33°26' W 117°46'17 1.0
2017-Dec-15 00:59N 33°23' W 118°05'9 1.3
2017-Dec-14 18:18N 33°25' W 117°55'825.6
2017-Dec-14 18:01N 33°26' W 117°46'4 7.3
2017-Dec-14 17:29N 33°28' W 117°42'0 0.0
2017-Dec-14 16:56N 33°28' W 117°42'0 0.2
2017-Dec-14 16:30N 33°28' W 117°41'0 0.0
2017-Dec-14 01:53N 33°28' W 117°42'615.2
2017-Dec-14 01:30N 33°26' W 117°48'1326.9
2017-Dec-14 01:00N 33°23' W 118°04'13 2.4
2017-Dec-13 19:30N 33°21' W 118°20'2 3.6
2017-Dec-13 19:00N 33°21' W 118°18'1326.4
2017-Dec-13 18:30N 33°24' W 118°02'1326.2
2017-Dec-13 18:01N 33°26' W 117°47'4 9.0
2017-Dec-13 17:30N 33°28' W 117°42'0 0.0
2017-Dec-13 17:00N 33°28' W 117°42'0 0.0
2017-Dec-13 16:30N 33°28' W 117°42'0 0.0
2017-Dec-13 02:01N 33°28' W 117°42'0 0.0
2017-Dec-13 02:00N 33°28' W 117°42'917.7
2017-Dec-13 01:30N 33°25' W 117°51'3 0.5
2017-Dec-12 18:19N 33°25' W 117°55'825.9
2017-Dec-12 18:00N 33°26' W 117°46'4 7.8
2017-Dec-12 17:30N 33°28' W 117°42'0 0.0
2017-Dec-12 01:53N 33°28' W 117°41'920.6
2017-Dec-12 01:26N 33°25' W 117°52'11 1.7
2017-Dec-11 18:35N 33°23' W 118°05'226.0
2017-Dec-11 18:30N 33°24' W 118°03'1326.2
2017-Dec-11 18:01N 33°26' W 117°48'510.6
2017-Dec-11 17:31N 33°28' W 117°42'0 0.0
2017-Dec-11 01:49N 33°27' W 117°42'620.7
2017-Dec-11 01:31N 33°26' W 117°49'2 0.6
2017-Dec-10 22:46N 33°26' W 117°47'518.1
2017-Dec-10 22:30N 33°28' W 117°42'0 0.0
2017-Dec-10 22:00N 33°28' W 117°42'0 0.0
2017-Dec-10 21:30N 33°28' W 117°42'2 3.0
2017-Dec-10 21:00N 33°27' W 117°43'2712.5
2017-Dec-10 18:53N 33°21' W 118°14'2127.3
2017-Dec-10 18:07N 33°25' W 117°50'527.5
2017-Dec-10 17:55N 33°27' W 117°43'2 0.1
2017-Dec-10 01:55N 33°28' W 117°42'18 2.5
2017-Dec-09 18:34N 33°24' W 118°03'226.4
2017-Dec-09 18:30N 33°24' W 118°01'1326.1
2017-Dec-09 18:00N 33°26' W 117°46'4 7.5
2017-Dec-09 17:30N 33°28' W 117°42'0 0.0
2017-Dec-09 02:50N 33°28' W 117°42'0 0.0
2017-Dec-09 02:30N 33°28' W 117°42'0 0.0
2017-Dec-09 02:00N 33°28' W 117°42'613.0
2017-Dec-09 01:30N 33°25' W 117°49'1427.3
2017-Dec-09 01:00N 33°23' W 118°05'8 7.9
2017-Dec-08 23:59N 33°21' W 118°15'1527.2
2017-Dec-08 23:26N 33°25' W 117°58'4 7.7
2017-Dec-08 22:59N 33°25' W 117°54'1022.1
2017-Dec-08 22:30N 33°28' W 117°42'0 0.0
2017-Dec-08 22:00N 33°28' W 117°42'0 0.0
2017-Dec-08 21:31N 33°28' W 117°42'1 2.2
2017-Dec-08 21:00N 33°27' W 117°42'18 7.4
2017-Dec-08 18:35N 33°23' W 118°03'227.1
2017-Dec-08 18:30N 33°23' W 118°01'1326.9
2017-Dec-08 18:01N 33°26' W 117°45'3 6.5
2017-Dec-08 17:30N 33°28' W 117°42'0 0.0
2017-Dec-08 17:00N 33°28' W 117°42'0 0.1
2017-Dec-08 16:21N 33°28' W 117°41'  

Dump ship's entire track history